sensor_id;sensor_type;location;lat;lon;timestamp;P1;durP1;ratioP1;P2;durP2;ratioP2
55015;SDS011;40919;43.236;21.590;2023-04-15T00:01:18;9.68;;;4.47;;
55015;SDS011;40919;43.236;21.590;2023-04-15T00:03:45;4.90;;;2.00;;
55015;SDS011;40919;43.236;21.590;2023-04-15T00:06:11;4.57;;;1.92;;
55015;SDS011;40919;43.236;21.590;2023-04-15T00:08:38;4.10;;;2.00;;
55015;SDS011;40919;43.236;21.590;2023-04-15T00:11:03;5.80;;;2.50;;
55015;SDS011;40919;43.236;21.590;2023-04-15T00:13:32;2.78;;;1.38;;
55015;SDS011;40919;43.236;21.590;2023-04-15T00:15:59;4.25;;;1.70;;
55015;SDS011;40919;43.236;21.590;2023-04-15T00:18:25;4.97;;;2.88;;
55015;SDS011;40919;43.236;21.590;2023-04-15T00:20:51;2.17;;;1.10;;
55015;SDS011;40919;43.236;21.590;2023-04-15T00:23:17;2.63;;;1.23;;
55015;SDS011;40919;43.236;21.590;2023-04-15T00:25:43;4.82;;;1.73;;
55015;SDS011;40919;43.236;21.590;2023-04-15T00:28:09;3.28;;;1.50;;
55015;SDS011;40919;43.236;21.590;2023-04-15T00:30:35;2.55;;;1.60;;
55015;SDS011;40919;43.236;21.590;2023-04-15T00:33:01;5.38;;;1.77;;
55015;SDS011;40919;43.236;21.590;2023-04-15T00:35:27;4.20;;;2.10;;
55015;SDS011;40919;43.236;21.590;2023-04-15T00:37:53;4.05;;;1.55;;
55015;SDS011;40919;43.236;21.590;2023-04-15T00:40:20;4.47;;;1.38;;
55015;SDS011;40919;43.236;21.590;2023-04-15T00:42:48;2.35;;;1.10;;
55015;SDS011;40919;43.236;21.590;2023-04-15T00:45:14;3.40;;;1.27;;
55015;SDS011;40919;43.236;21.590;2023-04-15T00:47:40;5.43;;;1.50;;
55015;SDS011;40919;43.236;21.590;2023-04-15T00:50:08;4.30;;;1.52;;
55015;SDS011;40919;43.236;21.590;2023-04-15T00:52:35;4.07;;;1.83;;
55015;SDS011;40919;43.236;21.590;2023-04-15T00:55:01;6.18;;;2.00;;
55015;SDS011;40919;43.236;21.590;2023-04-15T00:57:28;9.80;;;3.67;;
55015;SDS011;40919;43.236;21.590;2023-04-15T00:59:54;5.50;;;2.33;;
55015;SDS011;40919;43.236;21.590;2023-04-15T01:02:21;10.20;;;3.15;;
55015;SDS011;40919;43.236;21.590;2023-04-15T01:04:47;9.73;;;4.72;;
55015;SDS011;40919;43.236;21.590;2023-04-15T01:07:14;8.38;;;3.70;;
55015;SDS011;40919;43.236;21.590;2023-04-15T01:09:40;5.57;;;1.73;;
55015;SDS011;40919;43.236;21.590;2023-04-15T01:12:06;5.03;;;2.22;;
55015;SDS011;40919;43.236;21.590;2023-04-15T01:14:34;8.55;;;2.90;;
55015;SDS011;40919;43.236;21.590;2023-04-15T01:17:03;6.00;;;2.60;;
55015;SDS011;40919;43.236;21.590;2023-04-15T01:19:29;5.28;;;2.67;;
55015;SDS011;40919;43.236;21.590;2023-04-15T01:21:55;5.68;;;2.95;;
55015;SDS011;40919;43.236;21.590;2023-04-15T01:24:21;8.10;;;3.80;;
55015;SDS011;40919;43.236;21.590;2023-04-15T01:26:48;7.80;;;3.45;;
55015;SDS011;40919;43.236;21.590;2023-04-15T01:29:14;6.85;;;4.00;;
55015;SDS011;40919;43.236;21.590;2023-04-15T01:31:43;7.60;;;4.10;;
55015;SDS011;40919;43.236;21.590;2023-04-15T01:34:14;5.43;;;3.17;;
55015;SDS011;40919;43.236;21.590;2023-04-15T01:36:40;4.85;;;2.55;;
55015;SDS011;40919;43.236;21.590;2023-04-15T01:39:06;6.82;;;3.53;;
55015;SDS011;40919;43.236;21.590;2023-04-15T01:41:32;9.68;;;5.00;;
55015;SDS011;40919;43.236;21.590;2023-04-15T01:43:58;10.80;;;5.47;;
55015;SDS011;40919;43.236;21.590;2023-04-15T01:46:24;9.43;;;5.35;;
55015;SDS011;40919;43.236;21.590;2023-04-15T01:48:50;5.53;;;2.65;;
55015;SDS011;40919;43.236;21.590;2023-04-15T01:51:16;5.07;;;1.85;;
55015;SDS011;40919;43.236;21.590;2023-04-15T01:53:42;18.55;;;8.65;;
55015;SDS011;40919;43.236;21.590;2023-04-15T01:56:08;14.55;;;7.13;;
55015;SDS011;40919;43.236;21.590;2023-04-15T01:58:34;15.85;;;7.00;;
55015;SDS011;40919;43.236;21.590;2023-04-15T02:00:59;10.93;;;5.65;;
55015;SDS011;40919;43.236;21.590;2023-04-15T02:03:27;12.18;;;5.65;;
55015;SDS011;40919;43.236;21.590;2023-04-15T02:05:53;10.05;;;4.90;;
55015;SDS011;40919;43.236;21.590;2023-04-15T02:08:19;8.88;;;4.47;;
55015;SDS011;40919;43.236;21.590;2023-04-15T02:10:45;14.63;;;7.50;;
55015;SDS011;40919;43.236;21.590;2023-04-15T02:13:11;12.70;;;7.22;;
55015;SDS011;40919;43.236;21.590;2023-04-15T02:15:37;12.30;;;6.43;;
55015;SDS011;40919;43.236;21.590;2023-04-15T02:18:03;7.60;;;3.15;;
55015;SDS011;40919;43.236;21.590;2023-04-15T02:20:29;7.47;;;3.42;;
55015;SDS011;40919;43.236;21.590;2023-04-15T02:22:56;6.10;;;2.92;;
55015;SDS011;40919;43.236;21.590;2023-04-15T02:25:21;3.75;;;1.98;;
55015;SDS011;40919;43.236;21.590;2023-04-15T02:27:47;5.80;;;2.88;;
55015;SDS011;40919;43.236;21.590;2023-04-15T02:30:13;7.05;;;2.80;;
55015;SDS011;40919;43.236;21.590;2023-04-15T02:32:39;8.02;;;3.22;;
55015;SDS011;40919;43.236;21.590;2023-04-15T02:35:07;5.00;;;2.78;;
55015;SDS011;40919;43.236;21.590;2023-04-15T02:37:36;16.38;;;5.22;;
55015;SDS011;40919;43.236;21.590;2023-04-15T02:40:08;26.52;;;8.88;;
55015;SDS011;40919;43.236;21.590;2023-04-15T02:42:36;18.90;;;6.40;;
55015;SDS011;40919;43.236;21.590;2023-04-15T02:45:03;13.45;;;5.30;;
55015;SDS011;40919;43.236;21.590;2023-04-15T02:47:29;16.40;;;5.47;;
55015;SDS011;40919;43.236;21.590;2023-04-15T02:49:55;14.32;;;5.25;;
55015;SDS011;40919;43.236;21.590;2023-04-15T02:52:23;13.40;;;4.85;;
55015;SDS011;40919;43.236;21.590;2023-04-15T02:54:49;15.13;;;5.45;;
55015;SDS011;40919;43.236;21.590;2023-04-15T02:57:14;9.13;;;4.45;;
55015;SDS011;40919;43.236;21.590;2023-04-15T02:59:40;7.65;;;3.45;;
55015;SDS011;40919;43.236;21.590;2023-04-15T03:02:06;8.85;;;3.42;;
55015;SDS011;40919;43.236;21.590;2023-04-15T03:04:32;5.50;;;2.38;;
55015;SDS011;40919;43.236;21.590;2023-04-15T03:06:58;5.78;;;2.28;;
55015;SDS011;40919;43.236;21.590;2023-04-15T03:09:26;5.03;;;2.42;;
55015;SDS011;40919;43.236;21.590;2023-04-15T03:11:52;3.90;;;1.80;;
55015;SDS011;40919;43.236;21.590;2023-04-15T03:14:18;4.20;;;1.80;;
55015;SDS011;40919;43.236;21.590;2023-04-15T03:16:44;4.25;;;2.10;;
55015;SDS011;40919;43.236;21.590;2023-04-15T03:19:10;6.18;;;2.60;;
55015;SDS011;40919;43.236;21.590;2023-04-15T03:21:36;12.25;;;4.90;;
55015;SDS011;40919;43.236;21.590;2023-04-15T03:24:02;11.45;;;4.88;;
55015;SDS011;40919;43.236;21.590;2023-04-15T03:26:28;6.25;;;3.30;;
55015;SDS011;40919;43.236;21.590;2023-04-15T03:28:55;6.38;;;2.67;;
55015;SDS011;40919;43.236;21.590;2023-04-15T03:31:21;6.25;;;2.38;;
55015;SDS011;40919;43.236;21.590;2023-04-15T03:33:47;5.88;;;2.83;;
55015;SDS011;40919;43.236;21.590;2023-04-15T03:36:14;5.95;;;2.55;;
55015;SDS011;40919;43.236;21.590;2023-04-15T03:38:40;5.63;;;2.78;;
55015;SDS011;40919;43.236;21.590;2023-04-15T03:41:06;5.65;;;2.50;;
55015;SDS011;40919;43.236;21.590;2023-04-15T03:43:33;6.70;;;3.22;;
55015;SDS011;40919;43.236;21.590;2023-04-15T03:45:59;17.17;;;9.85;;
55015;SDS011;40919;43.236;21.590;2023-04-15T03:48:25;20.23;;;11.98;;
55015;SDS011;40919;43.236;21.590;2023-04-15T03:50:51;19.90;;;10.50;;
55015;SDS011;40919;43.236;21.590;2023-04-15T03:53:17;11.73;;;6.60;;
55015;SDS011;40919;43.236;21.590;2023-04-15T03:55:43;7.78;;;4.85;;
55015;SDS011;40919;43.236;21.590;2023-04-15T03:58:09;10.23;;;6.03;;
55015;SDS011;40919;43.236;21.590;2023-04-15T04:00:37;7.80;;;4.90;;
55015;SDS011;40919;43.236;21.590;2023-04-15T04:03:03;7.88;;;4.88;;
55015;SDS011;40919;43.236;21.590;2023-04-15T04:05:29;5.97;;;3.50;;
55015;SDS011;40919;43.236;21.590;2023-04-15T04:07:55;6.63;;;3.05;;
55015;SDS011;40919;43.236;21.590;2023-04-15T04:10:21;9.18;;;4.35;;
55015;SDS011;40919;43.236;21.590;2023-04-15T04:12:46;13.43;;;6.57;;
55015;SDS011;40919;43.236;21.590;2023-04-15T04:15:12;12.38;;;7.05;;
55015;SDS011;40919;43.236;21.590;2023-04-15T04:17:38;13.65;;;6.90;;
55015;SDS011;40919;43.236;21.590;2023-04-15T04:20:04;10.93;;;5.20;;
55015;SDS011;40919;43.236;21.590;2023-04-15T04:22:30;10.38;;;5.35;;
55015;SDS011;40919;43.236;21.590;2023-04-15T04:24:56;8.82;;;4.75;;
55015;SDS011;40919;43.236;21.590;2023-04-15T04:27:23;8.75;;;4.65;;
55015;SDS011;40919;43.236;21.590;2023-04-15T04:29:50;7.13;;;4.20;;
55015;SDS011;40919;43.236;21.590;2023-04-15T04:32:16;7.57;;;4.32;;
55015;SDS011;40919;43.236;21.590;2023-04-15T04:34:41;9.32;;;4.85;;
55015;SDS011;40919;43.236;21.590;2023-04-15T04:37:07;9.27;;;5.18;;
55015;SDS011;40919;43.236;21.590;2023-04-15T04:39:33;9.95;;;4.40;;
55015;SDS011;40919;43.236;21.590;2023-04-15T04:41:58;9.10;;;5.00;;
55015;SDS011;40919;43.236;21.590;2023-04-15T04:44:25;10.07;;;3.67;;
55015;SDS011;40919;43.236;21.590;2023-04-15T04:46:51;7.53;;;4.50;;
55015;SDS011;40919;43.236;21.590;2023-04-15T04:49:17;8.60;;;4.43;;
55015;SDS011;40919;43.236;21.590;2023-04-15T04:51:42;6.75;;;3.90;;
55015;SDS011;40919;43.236;21.590;2023-04-15T04:54:08;5.97;;;3.67;;
55015;SDS011;40919;43.236;21.590;2023-04-15T04:56:34;8.48;;;4.20;;
55015;SDS011;40919;43.236;21.590;2023-04-15T04:59:02;10.05;;;4.63;;
55015;SDS011;40919;43.236;21.590;2023-04-15T05:01:28;6.30;;;3.60;;
55015;SDS011;40919;43.236;21.590;2023-04-15T05:03:54;9.50;;;4.20;;
55015;SDS011;40919;43.236;21.590;2023-04-15T05:06:20;11.65;;;5.00;;
55015;SDS011;40919;43.236;21.590;2023-04-15T05:08:46;32.85;;;15.63;;
55015;SDS011;40919;43.236;21.590;2023-04-15T05:11:12;40.88;;;16.48;;
55015;SDS011;40919;43.236;21.590;2023-04-15T05:13:38;28.48;;;13.95;;
55015;SDS011;40919;43.236;21.590;2023-04-15T05:16:04;27.08;;;12.90;;
55015;SDS011;40919;43.236;21.590;2023-04-15T05:18:30;18.05;;;10.75;;
55015;SDS011;40919;43.236;21.590;2023-04-15T05:20:56;16.98;;;11.02;;
55015;SDS011;40919;43.236;21.590;2023-04-15T05:23:22;19.67;;;12.82;;
55015;SDS011;40919;43.236;21.590;2023-04-15T05:25:48;19.73;;;13.27;;
55015;SDS011;40919;43.236;21.590;2023-04-15T05:28:13;15.00;;;8.88;;
55015;SDS011;40919;43.236;21.590;2023-04-15T05:30:39;12.88;;;6.68;;
55015;SDS011;40919;43.236;21.590;2023-04-15T05:33:05;13.20;;;8.25;;
55015;SDS011;40919;43.236;21.590;2023-04-15T05:35:31;13.10;;;8.48;;
55015;SDS011;40919;43.236;21.590;2023-04-15T05:37:57;11.65;;;8.23;;
55015;SDS011;40919;43.236;21.590;2023-04-15T05:40:22;16.27;;;10.90;;
55015;SDS011;40919;43.236;21.590;2023-04-15T05:42:48;18.85;;;13.25;;
55015;SDS011;40919;43.236;21.590;2023-04-15T05:45:14;16.25;;;11.75;;
55015;SDS011;40919;43.236;21.590;2023-04-15T05:47:40;15.25;;;10.02;;
55015;SDS011;40919;43.236;21.590;2023-04-15T05:50:05;14.73;;;9.05;;
55015;SDS011;40919;43.236;21.590;2023-04-15T05:52:32;12.27;;;7.90;;
55015;SDS011;40919;43.236;21.590;2023-04-15T05:54:58;14.25;;;8.43;;
55015;SDS011;40919;43.236;21.590;2023-04-15T05:57:23;16.23;;;10.23;;
55015;SDS011;40919;43.236;21.590;2023-04-15T05:59:49;21.83;;;12.73;;
55015;SDS011;40919;43.236;21.590;2023-04-15T06:02:18;21.42;;;14.55;;
55015;SDS011;40919;43.236;21.590;2023-04-15T06:04:44;25.08;;;16.67;;
55015;SDS011;40919;43.236;21.590;2023-04-15T06:07:09;28.98;;;19.60;;
55015;SDS011;40919;43.236;21.590;2023-04-15T06:09:35;33.92;;;23.08;;
55015;SDS011;40919;43.236;21.590;2023-04-15T06:12:01;25.48;;;19.25;;
55015;SDS011;40919;43.236;21.590;2023-04-15T06:14:27;23.55;;;14.73;;
55015;SDS011;40919;43.236;21.590;2023-04-15T06:16:52;16.67;;;11.38;;
55015;SDS011;40919;43.236;21.590;2023-04-15T06:19:18;13.80;;;10.13;;
55015;SDS011;40919;43.236;21.590;2023-04-15T06:21:44;17.60;;;10.38;;
55015;SDS011;40919;43.236;21.590;2023-04-15T06:24:10;16.15;;;11.13;;
55015;SDS011;40919;43.236;21.590;2023-04-15T06:26:36;19.10;;;11.68;;
55015;SDS011;40919;43.236;21.590;2023-04-15T06:29:02;17.13;;;11.48;;
55015;SDS011;40919;43.236;21.590;2023-04-15T06:31:28;13.57;;;10.07;;
55015;SDS011;40919;43.236;21.590;2023-04-15T06:33:54;14.23;;;9.05;;
55015;SDS011;40919;43.236;21.590;2023-04-15T06:36:20;16.27;;;10.48;;
55015;SDS011;40919;43.236;21.590;2023-04-15T06:38:46;13.65;;;9.88;;
55015;SDS011;40919;43.236;21.590;2023-04-15T06:41:12;14.55;;;9.20;;
55015;SDS011;40919;43.236;21.590;2023-04-15T06:43:38;15.88;;;10.15;;
55015;SDS011;40919;43.236;21.590;2023-04-15T06:46:04;14.20;;;9.38;;
55015;SDS011;40919;43.236;21.590;2023-04-15T06:48:30;11.68;;;7.32;;
55015;SDS011;40919;43.236;21.590;2023-04-15T06:50:56;9.63;;;5.78;;
55015;SDS011;40919;43.236;21.590;2023-04-15T06:53:24;9.70;;;5.43;;
55015;SDS011;40919;43.236;21.590;2023-04-15T06:55:52;9.43;;;4.28;;
55015;SDS011;40919;43.236;21.590;2023-04-15T06:58:17;11.48;;;5.60;;
55015;SDS011;40919;43.236;21.590;2023-04-15T07:00:43;11.75;;;4.00;;
55015;SDS011;40919;43.236;21.590;2023-04-15T07:03:11;15.25;;;5.18;;
55015;SDS011;40919;43.236;21.590;2023-04-15T07:05:37;20.02;;;11.40;;
55015;SDS011;40919;43.236;21.590;2023-04-15T07:08:03;14.23;;;7.90;;
55015;SDS011;40919;43.236;21.590;2023-04-15T07:10:30;10.38;;;4.90;;
55015;SDS011;40919;43.236;21.590;2023-04-15T07:12:57;11.30;;;3.55;;
55015;SDS011;40919;43.236;21.590;2023-04-15T07:15:23;7.60;;;3.30;;
55015;SDS011;40919;43.236;21.590;2023-04-15T07:17:49;7.55;;;2.75;;
55015;SDS011;40919;43.236;21.590;2023-04-15T07:20:15;9.77;;;3.22;;
55015;SDS011;40919;43.236;21.590;2023-04-15T07:22:41;8.10;;;3.75;;
55015;SDS011;40919;43.236;21.590;2023-04-15T07:25:07;7.43;;;3.80;;
55015;SDS011;40919;43.236;21.590;2023-04-15T07:27:33;7.55;;;2.72;;
55015;SDS011;40919;43.236;21.590;2023-04-15T07:29:58;6.35;;;3.50;;
55015;SDS011;40919;43.236;21.590;2023-04-15T07:32:24;6.18;;;2.78;;
55015;SDS011;40919;43.236;21.590;2023-04-15T07:34:50;6.55;;;3.20;;
55015;SDS011;40919;43.236;21.590;2023-04-15T07:37:16;7.35;;;5.03;;
55015;SDS011;40919;43.236;21.590;2023-04-15T07:39:42;7.80;;;4.40;;
55015;SDS011;40919;43.236;21.590;2023-04-15T07:42:08;7.70;;;3.50;;
55015;SDS011;40919;43.236;21.590;2023-04-15T07:44:34;6.35;;;3.40;;
55015;SDS011;40919;43.236;21.590;2023-04-15T07:47:01;6.10;;;3.20;;
55015;SDS011;40919;43.236;21.590;2023-04-15T07:49:28;10.25;;;3.55;;
55015;SDS011;40919;43.236;21.590;2023-04-15T07:51:54;6.18;;;3.30;;
55015;SDS011;40919;43.236;21.590;2023-04-15T07:54:21;6.53;;;2.95;;
55015;SDS011;40919;43.236;21.590;2023-04-15T07:56:47;9.13;;;3.67;;
55015;SDS011;40919;43.236;21.590;2023-04-15T07:59:13;10.75;;;4.70;;
55015;SDS011;40919;43.236;21.590;2023-04-15T08:01:42;7.45;;;2.45;;
55015;SDS011;40919;43.236;21.590;2023-04-15T08:04:08;6.88;;;3.45;;
55015;SDS011;40919;43.236;21.590;2023-04-15T08:06:34;6.90;;;3.83;;
55015;SDS011;40919;43.236;21.590;2023-04-15T08:09:00;21.70;;;8.68;;
55015;SDS011;40919;43.236;21.590;2023-04-15T08:11:26;13.55;;;6.10;;
55015;SDS011;40919;43.236;21.590;2023-04-15T08:13:52;8.73;;;3.70;;
55015;SDS011;40919;43.236;21.590;2023-04-15T08:16:22;7.60;;;2.92;;
55015;SDS011;40919;43.236;21.590;2023-04-15T08:18:49;10.23;;;5.60;;
55015;SDS011;40919;43.236;21.590;2023-04-15T08:21:17;7.13;;;3.35;;
55015;SDS011;40919;43.236;21.590;2023-04-15T08:23:43;10.05;;;4.85;;
55015;SDS011;40919;43.236;21.590;2023-04-15T08:26:10;16.15;;;7.82;;
55015;SDS011;40919;43.236;21.590;2023-04-15T08:28:37;10.15;;;4.78;;
55015;SDS011;40919;43.236;21.590;2023-04-15T08:31:04;5.95;;;3.10;;
55015;SDS011;40919;43.236;21.590;2023-04-15T08:33:30;7.47;;;3.08;;
55015;SDS011;40919;43.236;21.590;2023-04-15T08:35:55;6.95;;;2.55;;
55015;SDS011;40919;43.236;21.590;2023-04-15T08:38:22;8.43;;;3.55;;
55015;SDS011;40919;43.236;21.590;2023-04-15T08:40:48;8.93;;;3.78;;
55015;SDS011;40919;43.236;21.590;2023-04-15T08:43:23;8.30;;;4.07;;
55015;SDS011;40919;43.236;21.590;2023-04-15T08:45:52;6.25;;;2.53;;
55015;SDS011;40919;43.236;21.590;2023-04-15T08:48:19;5.72;;;2.58;;
55015;SDS011;40919;43.236;21.590;2023-04-15T08:50:46;9.38;;;2.42;;
55015;SDS011;40919;43.236;21.590;2023-04-15T08:53:13;8.38;;;3.50;;
55015;SDS011;40919;43.236;21.590;2023-04-15T08:55:44;13.93;;;7.75;;
55015;SDS011;40919;43.236;21.590;2023-04-15T08:58:11;7.80;;;2.67;;
55015;SDS011;40919;43.236;21.590;2023-04-15T09:00:38;18.30;;;9.15;;
55015;SDS011;40919;43.236;21.590;2023-04-15T09:03:04;11.18;;;4.72;;
55015;SDS011;40919;43.236;21.590;2023-04-15T09:05:32;10.45;;;5.13;;
55015;SDS011;40919;43.236;21.590;2023-04-15T09:07:58;8.70;;;4.10;;
55015;SDS011;40919;43.236;21.590;2023-04-15T09:10:25;8.75;;;5.68;;
55015;SDS011;40919;43.236;21.590;2023-04-15T09:12:51;7.22;;;3.05;;
55015;SDS011;40919;43.236;21.590;2023-04-15T09:15:17;11.68;;;2.47;;
55015;SDS011;40919;43.236;21.590;2023-04-15T09:17:44;7.65;;;2.83;;
55015;SDS011;40919;43.236;21.590;2023-04-15T09:20:14;10.38;;;3.50;;
55015;SDS011;40919;43.236;21.590;2023-04-15T09:22:43;9.32;;;3.60;;
55015;SDS011;40919;43.236;21.590;2023-04-15T09:27:53;8.82;;;3.28;;
55015;SDS011;40919;43.236;21.590;2023-04-15T09:30:23;9.50;;;4.32;;
55015;SDS011;40919;43.236;21.590;2023-04-15T09:32:53;10.02;;;4.75;;
55015;SDS011;40919;43.236;21.590;2023-04-15T09:35:24;6.53;;;3.15;;
55015;SDS011;40919;43.236;21.590;2023-04-15T09:37:52;7.72;;;3.88;;
55015;SDS011;40919;43.236;21.590;2023-04-15T09:43:00;14.20;;;5.78;;
55015;SDS011;40919;43.236;21.590;2023-04-15T09:45:27;8.57;;;4.70;;
55015;SDS011;40919;43.236;21.590;2023-04-15T09:47:53;10.25;;;5.20;;
55015;SDS011;40919;43.236;21.590;2023-04-15T09:50:21;12.18;;;6.35;;
55015;SDS011;40919;43.236;21.590;2023-04-15T09:52:46;8.77;;;4.07;;
55015;SDS011;40919;43.236;21.590;2023-04-15T09:55:13;7.10;;;2.83;;
55015;SDS011;40919;43.236;21.590;2023-04-15T09:57:40;8.77;;;4.28;;
55015;SDS011;40919;43.236;21.590;2023-04-15T10:00:07;8.80;;;4.78;;
55015;SDS011;40919;43.236;21.590;2023-04-15T10:02:35;10.38;;;4.53;;
55015;SDS011;40919;43.236;21.590;2023-04-15T10:05:02;7.68;;;4.50;;
55015;SDS011;40919;43.236;21.590;2023-04-15T10:07:28;7.45;;;4.72;;
55015;SDS011;40919;43.236;21.590;2023-04-15T10:09:55;11.32;;;7.15;;
55015;SDS011;40919;43.236;21.590;2023-04-15T10:12:21;9.45;;;4.28;;
55015;SDS011;40919;43.236;21.590;2023-04-15T10:14:48;5.15;;;2.72;;
55015;SDS011;40919;43.236;21.590;2023-04-15T10:17:22;7.18;;;3.22;;
55015;SDS011;40919;43.236;21.590;2023-04-15T10:19:53;4.47;;;2.60;;
55015;SDS011;40919;43.236;21.590;2023-04-15T10:22:20;5.78;;;2.55;;
55015;SDS011;40919;43.236;21.590;2023-04-15T10:24:50;7.18;;;2.40;;
55015;SDS011;40919;43.236;21.590;2023-04-15T10:27:17;4.70;;;1.60;;
55015;SDS011;40919;43.236;21.590;2023-04-15T10:29:44;4.90;;;2.13;;
55015;SDS011;40919;43.236;21.590;2023-04-15T10:32:11;6.20;;;2.33;;
55015;SDS011;40919;43.236;21.590;2023-04-15T10:34:37;4.63;;;2.20;;
55015;SDS011;40919;43.236;21.590;2023-04-15T10:37:04;7.35;;;3.03;;
55015;SDS011;40919;43.236;21.590;2023-04-15T10:42:08;5.95;;;2.28;;
55015;SDS011;40919;43.236;21.590;2023-04-15T10:44:36;5.32;;;2.30;;
55015;SDS011;40919;43.236;21.590;2023-04-15T10:47:24;4.00;;;1.95;;
55015;SDS011;40919;43.236;21.590;2023-04-15T10:49:56;5.00;;;2.50;;
55015;SDS011;40919;43.236;21.590;2023-04-15T10:52:24;4.22;;;2.10;;
55015;SDS011;40919;43.236;21.590;2023-04-15T10:55:33;4.72;;;2.28;;
55015;SDS011;40919;43.236;21.590;2023-04-15T10:57:44;12.18;;;6.53;;
55015;SDS011;40919;43.236;21.590;2023-04-15T11:00:13;7.32;;;3.25;;
55015;SDS011;40919;43.236;21.590;2023-04-15T11:02:52;7.32;;;3.50;;
55015;SDS011;40919;43.236;21.590;2023-04-15T11:05:21;8.63;;;2.97;;
55015;SDS011;40919;43.236;21.590;2023-04-15T11:08:10;11.13;;;6.68;;
55015;SDS011;40919;43.236;21.590;2023-04-15T11:13:03;14.20;;;7.63;;
55015;SDS011;40919;43.236;21.590;2023-04-15T11:15:36;7.20;;;4.00;;
55015;SDS011;40919;43.236;21.590;2023-04-15T11:20:52;7.72;;;3.83;;
55015;SDS011;40919;43.236;21.590;2023-04-15T11:25:55;12.52;;;7.57;;
55015;SDS011;40919;43.236;21.590;2023-04-15T11:28:27;9.02;;;5.47;;
55015;SDS011;40919;43.236;21.590;2023-04-15T11:30:55;8.77;;;3.38;;
55015;SDS011;40919;43.236;21.590;2023-04-15T11:33:21;5.72;;;3.10;;
55015;SDS011;40919;43.236;21.590;2023-04-15T11:35:48;6.72;;;2.70;;
55015;SDS011;40919;43.236;21.590;2023-04-15T11:38:14;6.10;;;3.35;;
55015;SDS011;40919;43.236;21.590;2023-04-15T11:40:41;5.15;;;3.13;;
55015;SDS011;40919;43.236;21.590;2023-04-15T11:43:17;10.05;;;3.15;;
55015;SDS011;40919;43.236;21.590;2023-04-15T11:45:52;6.97;;;2.78;;
55015;SDS011;40919;43.236;21.590;2023-04-15T11:48:23;4.50;;;1.60;;
55015;SDS011;40919;43.236;21.590;2023-04-15T11:50:53;5.20;;;1.85;;
55015;SDS011;40919;43.236;21.590;2023-04-15T11:53:19;6.15;;;2.42;;
55015;SDS011;40919;43.236;21.590;2023-04-15T11:55:49;5.28;;;2.17;;
55015;SDS011;40919;43.236;21.590;2023-04-15T11:58:20;8.30;;;2.58;;
55015;SDS011;40919;43.236;21.590;2023-04-15T12:00:53;4.50;;;2.05;;
55015;SDS011;40919;43.236;21.590;2023-04-15T12:03:25;6.93;;;2.42;;
55015;SDS011;40919;43.236;21.590;2023-04-15T12:06:09;5.38;;;1.58;;
55015;SDS011;40919;43.236;21.590;2023-04-15T12:08:56;5.50;;;2.88;;
55015;SDS011;40919;43.236;21.590;2023-04-15T12:16:42;4.22;;;2.00;;
55015;SDS011;40919;43.236;21.590;2023-04-15T12:19:11;7.07;;;2.30;;
55015;SDS011;40919;43.236;21.590;2023-04-15T12:21:39;5.72;;;2.42;;
55015;SDS011;40919;43.236;21.590;2023-04-15T12:24:09;5.32;;;2.25;;
55015;SDS011;40919;43.236;21.590;2023-04-15T12:26:48;5.53;;;2.38;;
55015;SDS011;40919;43.236;21.590;2023-04-15T12:29:16;7.03;;;2.45;;
55015;SDS011;40919;43.236;21.590;2023-04-15T12:31:49;8.43;;;2.55;;
55015;SDS011;40919;43.236;21.590;2023-04-15T12:37:03;6.55;;;2.65;;
55015;SDS011;40919;43.236;21.590;2023-04-15T12:39:33;4.78;;;2.25;;
55015;SDS011;40919;43.236;21.590;2023-04-15T12:42:00;4.93;;;2.42;;
55015;SDS011;40919;43.236;21.590;2023-04-15T12:44:27;5.40;;;2.72;;
55015;SDS011;40919;43.236;21.590;2023-04-15T12:46:53;8.07;;;2.15;;
55015;SDS011;40919;43.236;21.590;2023-04-15T12:49:19;5.22;;;2.28;;
55015;SDS011;40919;43.236;21.590;2023-04-15T12:51:50;10.73;;;6.43;;
55015;SDS011;40919;43.236;21.590;2023-04-15T12:54:18;16.00;;;9.65;;
55015;SDS011;40919;43.236;21.590;2023-04-15T12:56:44;9.05;;;5.22;;
55015;SDS011;40919;43.236;21.590;2023-04-15T12:59:11;11.30;;;6.53;;
55015;SDS011;40919;43.236;21.590;2023-04-15T13:01:37;10.35;;;5.00;;
55015;SDS011;40919;43.236;21.590;2023-04-15T13:04:03;15.07;;;8.15;;
55015;SDS011;40919;43.236;21.590;2023-04-15T13:06:29;10.52;;;5.72;;
55015;SDS011;40919;43.236;21.590;2023-04-15T13:08:58;11.18;;;5.82;;
55015;SDS011;40919;43.236;21.590;2023-04-15T13:11:27;7.50;;;3.95;;
55015;SDS011;40919;43.236;21.590;2023-04-15T13:13:59;6.47;;;2.47;;
55015;SDS011;40919;43.236;21.590;2023-04-15T13:16:26;5.25;;;2.80;;
55015;SDS011;40919;43.236;21.590;2023-04-15T13:18:52;7.00;;;3.10;;
55015;SDS011;40919;43.236;21.590;2023-04-15T13:21:18;7.00;;;2.78;;
55015;SDS011;40919;43.236;21.590;2023-04-15T13:23:43;6.20;;;3.05;;
55015;SDS011;40919;43.236;21.590;2023-04-15T13:26:10;6.78;;;2.70;;
55015;SDS011;40919;43.236;21.590;2023-04-15T13:28:36;5.30;;;1.90;;
55015;SDS011;40919;43.236;21.590;2023-04-15T13:31:02;5.22;;;2.42;;
55015;SDS011;40919;43.236;21.590;2023-04-15T13:33:29;4.32;;;2.03;;
55015;SDS011;40919;43.236;21.590;2023-04-15T13:35:55;7.07;;;2.53;;
55015;SDS011;40919;43.236;21.590;2023-04-15T13:38:20;4.20;;;2.17;;
55015;SDS011;40919;43.236;21.590;2023-04-15T13:40:49;6.53;;;2.25;;
55015;SDS011;40919;43.236;21.590;2023-04-15T13:43:15;5.07;;;2.28;;
55015;SDS011;40919;43.236;21.590;2023-04-15T13:45:41;5.85;;;3.13;;
55015;SDS011;40919;43.236;21.590;2023-04-15T13:48:08;5.57;;;2.53;;
55015;SDS011;40919;43.236;21.590;2023-04-15T13:50:34;6.30;;;2.95;;
55015;SDS011;40919;43.236;21.590;2023-04-15T13:53:00;5.47;;;2.58;;
55015;SDS011;40919;43.236;21.590;2023-04-15T13:55:26;4.90;;;2.70;;
55015;SDS011;40919;43.236;21.590;2023-04-15T13:57:52;5.78;;;2.45;;
55015;SDS011;40919;43.236;21.590;2023-04-15T14:00:18;5.50;;;3.00;;
55015;SDS011;40919;43.236;21.590;2023-04-15T14:02:43;7.82;;;3.38;;
55015;SDS011;40919;43.236;21.590;2023-04-15T14:05:10;7.72;;;3.97;;
55015;SDS011;40919;43.236;21.590;2023-04-15T14:07:36;8.88;;;4.13;;
55015;SDS011;40919;43.236;21.590;2023-04-15T14:10:02;8.07;;;5.30;;
55015;SDS011;40919;43.236;21.590;2023-04-15T14:12:28;8.48;;;3.92;;
55015;SDS011;40919;43.236;21.590;2023-04-15T14:14:54;6.18;;;3.08;;
55015;SDS011;40919;43.236;21.590;2023-04-15T14:17:20;7.28;;;3.25;;
55015;SDS011;40919;43.236;21.590;2023-04-15T14:19:47;8.38;;;3.75;;
55015;SDS011;40919;43.236;21.590;2023-04-15T14:22:13;7.70;;;5.03;;
55015;SDS011;40919;43.236;21.590;2023-04-15T14:24:39;6.93;;;3.80;;
55015;SDS011;40919;43.236;21.590;2023-04-15T14:27:05;7.40;;;4.05;;
55015;SDS011;40919;43.236;21.590;2023-04-15T14:29:32;5.82;;;3.80;;
55015;SDS011;40919;43.236;21.590;2023-04-15T14:31:58;7.55;;;4.93;;
55015;SDS011;40919;43.236;21.590;2023-04-15T14:34:24;5.10;;;3.13;;
55015;SDS011;40919;43.236;21.590;2023-04-15T14:36:51;4.10;;;2.30;;
55015;SDS011;40919;43.236;21.590;2023-04-15T14:39:17;6.40;;;3.25;;
55015;SDS011;40919;43.236;21.590;2023-04-15T14:41:43;12.18;;;6.00;;
55015;SDS011;40919;43.236;21.590;2023-04-15T14:44:10;10.32;;;4.28;;
55015;SDS011;40919;43.236;21.590;2023-04-15T14:46:36;6.45;;;4.03;;
55015;SDS011;40919;43.236;21.590;2023-04-15T14:49:02;5.85;;;3.28;;
55015;SDS011;40919;43.236;21.590;2023-04-15T14:51:29;8.32;;;3.33;;